createdAt,value
2022-11-21T00:01:20.549Z,5.22
2022-11-21T00:03:48.109Z,5.28
2022-11-21T00:06:16.365Z,4.50
2022-11-21T00:08:44.004Z,4.53
2022-11-21T00:11:11.967Z,4.63
2022-11-21T00:13:39.335Z,4.65
2022-11-21T00:16:08.408Z,4.47
2022-11-21T00:18:36.159Z,4.47
2022-11-21T00:21:10.793Z,4.78
2022-11-21T00:23:38.030Z,4.70
2022-11-21T00:26:09.508Z,4.68
2022-11-21T00:28:36.869Z,4.60
2022-11-21T00:31:04.970Z,4.10
2022-11-21T00:33:33.132Z,4.75
2022-11-21T00:36:09.614Z,4.93
2022-11-21T00:38:37.673Z,4.40
2022-11-21T00:41:05.642Z,4.60
2022-11-21T00:43:33.291Z,5.40
2022-11-21T00:46:03.065Z,4.65
2022-11-21T00:48:32.135Z,4.70
2022-11-21T00:51:03.289Z,3.85
2022-11-21T00:53:30.652Z,4.35
2022-11-21T00:55:58.299Z,4.57
2022-11-21T00:58:25.966Z,4.85
2022-11-21T01:00:53.388Z,4.20
2022-11-21T01:03:21.206Z,4.30
2022-11-21T01:05:48.467Z,4.40
2022-11-21T01:08:15.491Z,4.95
2022-11-21T01:10:42.762Z,4.45
2022-11-21T01:13:09.996Z,4.40
2022-11-21T01:15:37.293Z,5.05
2022-11-21T01:18:04.484Z,4.75
2022-11-21T01:20:31.777Z,4.40
2022-11-21T01:22:59.015Z,4.80
2022-11-21T01:25:26.352Z,4.47
2022-11-21T01:27:53.377Z,4.93
2022-11-21T01:30:20.793Z,4.45
2022-11-21T01:32:51.227Z,5.30
2022-11-21T01:35:19.640Z,5.20
2022-11-21T01:37:50.129Z,5.55
2022-11-21T01:40:17.532Z,5.20
2022-11-21T01:42:53.678Z,5.30
2022-11-21T01:45:48.650Z,5.85
2022-11-21T01:50:43.330Z,5.90
2022-11-21T01:53:11.189Z,4.72
2022-11-21T01:55:38.602Z,5.63
2022-11-21T01:58:06.355Z,5.30
2022-11-21T02:00:38.797Z,5.65
2022-11-21T02:03:12.686Z,6.07
2022-11-21T02:05:41.440Z,5.85
2022-11-21T02:08:18.177Z,5.60
2022-11-21T02:10:57.103Z,5.50
2022-11-21T02:13:24.485Z,5.07
2022-11-21T02:15:51.724Z,5.40
2022-11-21T02:18:18.895Z,6.88
2022-11-21T02:20:52.808Z,5.80
2022-11-21T02:23:34.204Z,6.45
2022-11-21T02:26:01.601Z,5.60
2022-11-21T02:28:29.933Z,6.10
2022-11-21T02:30:57.471Z,5.88
2022-11-21T02:33:24.707Z,7.10
2022-11-21T02:35:59.647Z,6.13
2022-11-21T02:38:37.035Z,6.20
2022-11-21T02:41:28.643Z,6.10
2022-11-21T02:44:13.344Z,6.40
2022-11-21T02:46:49.868Z,5.45
2022-11-21T02:49:23.310Z,6.38
2022-11-21T02:51:50.481Z,6.00
2022-11-21T02:54:17.758Z,5.85
2022-11-21T02:56:44.913Z,5.70
2022-11-21T02:59:12.193Z,5.07
2022-11-21T03:01:39.396Z,4.80
2022-11-21T03:04:06.839Z,5.57
2022-11-21T03:06:34.064Z,5.22
2022-11-21T03:09:01.233Z,5.07
2022-11-21T03:11:28.283Z,6.00
2022-11-21T03:13:55.613Z,5.40
2022-11-21T03:16:23.131Z,5.45
2022-11-21T03:18:50.235Z,4.90
2022-11-21T03:21:20.144Z,5.78
2022-11-21T03:23:47.310Z,4.68
2022-11-21T03:26:14.631Z,4.85
2022-11-21T03:28:43.228Z,4.93
2022-11-21T03:31:10.733Z,4.65
2022-11-21T03:33:37.854Z,4.60
2022-11-21T03:36:05.724Z,4.32
2022-11-21T03:38:32.938Z,3.97
2022-11-21T03:41:05.370Z,3.78
2022-11-21T03:43:32.753Z,3.85
2022-11-21T03:45:59.968Z,3.50
2022-11-21T03:48:27.371Z,3.50
2022-11-21T03:50:54.739Z,3.60
2022-11-21T03:53:21.933Z,3.70
2022-11-21T03:55:49.209Z,3.90
2022-11-21T03:58:16.489Z,3.90
2022-11-21T04:00:43.781Z,3.67
2022-11-21T04:03:10.970Z,3.72
2022-11-21T04:05:38.393Z,3.92
2022-11-21T04:08:05.847Z,4.30
2022-11-21T04:10:33.188Z,4.22
2022-11-21T04:13:00.468Z,4.50
2022-11-21T04:15:27.738Z,3.65
2022-11-21T04:17:55.067Z,3.60
2022-11-21T04:20:22.448Z,3.83
2022-11-21T04:22:49.747Z,3.83
2022-11-21T04:25:17.046Z,4.22
2022-11-21T04:27:44.341Z,3.85
2022-11-21T04:30:12.134Z,3.65
2022-11-21T04:32:39.142Z,3.90
2022-11-21T04:35:06.867Z,3.90
2022-11-21T04:37:34.289Z,4.10
2022-11-21T04:40:01.698Z,3.78
2022-11-21T04:42:28.943Z,4.32
2022-11-21T04:44:56.281Z,3.75
2022-11-21T04:47:23.603Z,4.13
2022-11-21T04:49:50.878Z,3.67
2022-11-21T04:52:18.114Z,3.92
2022-11-21T04:54:45.531Z,4.13
2022-11-21T04:57:12.808Z,4.47
2022-11-21T04:59:39.907Z,3.95
2022-11-21T05:02:07.064Z,4.10
2022-11-21T05:04:34.298Z,3.80
2022-11-21T05:07:01.679Z,4.43
2022-11-21T05:09:29.249Z,4.00
2022-11-21T05:12:14.955Z,4.40
2022-11-21T05:14:42.343Z,3.88
2022-11-21T05:17:09.619Z,4.90
2022-11-21T05:19:36.904Z,4.18
2022-11-21T05:22:04.270Z,5.10
2022-11-21T05:24:31.558Z,4.82
2022-11-21T05:26:58.797Z,5.35
2022-11-21T05:29:28.221Z,6.20
2022-11-21T05:31:55.703Z,4.75
2022-11-21T05:34:23.427Z,5.00
2022-11-21T05:36:57.366Z,5.32
2022-11-21T05:39:25.067Z,6.10
2022-11-21T05:41:52.856Z,6.10
2022-11-21T05:44:20.330Z,6.93
2022-11-21T05:46:47.821Z,6.40
2022-11-21T05:49:15.218Z,7.22
2022-11-21T05:51:42.587Z,7.88
2022-11-21T05:54:15.005Z,6.45
2022-11-21T05:56:42.647Z,7.35
2022-11-21T05:59:11.713Z,7.53
2022-11-21T06:01:57.642Z,6.82
2022-11-21T06:04:24.984Z,7.85
2022-11-21T06:06:52.521Z,7.43
2022-11-21T06:09:19.911Z,8.00
2022-11-21T06:11:47.301Z,8.40
2022-11-21T06:14:14.583Z,8.02
2022-11-21T06:16:41.783Z,8.77
2022-11-21T06:19:09.068Z,9.02
2022-11-21T06:21:45.664Z,9.20
2022-11-21T06:24:13.149Z,9.52
2022-11-21T06:26:41.194Z,9.10
2022-11-21T06:29:11.837Z,9.88
2022-11-21T06:31:39.077Z,9.65
2022-11-21T06:34:06.404Z,10.30
2022-11-21T06:36:33.654Z,10.57
2022-11-21T06:39:00.975Z,9.95
2022-11-21T06:41:31.134Z,9.93
2022-11-21T06:44:01.933Z,10.85
2022-11-21T06:46:29.524Z,10.73
2022-11-21T06:48:56.750Z,10.55
2022-11-21T06:51:25.246Z,11.10
2022-11-21T06:53:59.419Z,10.60
2022-11-21T06:58:59.320Z,10.90
2022-11-21T07:01:26.872Z,10.65
2022-11-21T07:03:54.739Z,10.88
2022-11-21T07:06:22.437Z,11.98
2022-11-21T07:09:17.700Z,10.68
2022-11-21T07:11:41.337Z,11.23
2022-11-21T07:14:09.448Z,11.18
2022-11-21T07:16:37.175Z,12.05
2022-11-21T07:19:04.495Z,12.25
2022-11-21T07:21:31.690Z,11.85
2022-11-21T07:23:59.428Z,12.43
2022-11-21T07:26:26.768Z,12.07
2022-11-21T07:28:54.042Z,12.45
2022-11-21T07:31:21.155Z,11.90
2022-11-21T07:33:48.487Z,11.30
2022-11-21T07:36:15.880Z,11.40
2022-11-21T07:38:43.188Z,11.15
2022-11-21T07:41:11.105Z,11.27
2022-11-21T07:43:38.379Z,11.30
2022-11-21T07:46:05.565Z,11.23
2022-11-21T07:48:32.746Z,11.23
2022-11-21T07:51:02.892Z,11.02
2022-11-21T07:53:30.127Z,9.50
2022-11-21T07:56:02.492Z,10.13
2022-11-21T07:58:29.662Z,9.95
2022-11-21T08:00:57.377Z,9.60
2022-11-21T08:03:25.609Z,9.05
2022-11-21T08:05:52.737Z,9.52
2022-11-21T08:08:19.950Z,8.55
2022-11-21T08:10:47.296Z,8.55
2022-11-21T08:13:15.239Z,9.18
2022-11-21T08:15:42.758Z,9.52
2022-11-21T08:18:20.784Z,8.98
2022-11-21T08:20:48.306Z,9.82
2022-11-21T08:23:15.479Z,10.77
2022-11-21T08:25:43.961Z,10.30
2022-11-21T08:28:11.968Z,9.93
2022-11-21T08:30:40.603Z,9.93
2022-11-21T08:33:08.084Z,9.50
2022-11-21T08:35:38.583Z,8.65
2022-11-21T08:38:06.237Z,8.77
2022-11-21T08:40:34.103Z,9.07
2022-11-21T08:43:06.703Z,8.20
2022-11-21T08:45:35.326Z,9.43
2022-11-21T08:48:03.276Z,7.40
2022-11-21T08:50:30.586Z,8.10
2022-11-21T08:53:02.013Z,8.13
2022-11-21T08:55:30.394Z,7.63
2022-11-21T08:57:57.812Z,8.13
2022-11-21T09:00:25.174Z,7.97
2022-11-21T09:02:52.404Z,8.70
2022-11-21T09:05:19.590Z,8.02
2022-11-21T09:07:47.551Z,7.85
2022-11-21T09:10:15.366Z,8.10
2022-11-21T09:12:42.915Z,8.55
2022-11-21T09:15:30.178Z,8.48
2022-11-21T09:18:04.477Z,8.82
2022-11-21T09:20:34.499Z,9.02
2022-11-21T09:23:06.597Z,9.88
2022-11-21T09:25:34.405Z,9.55
2022-11-21T09:28:03.537Z,9.43
2022-11-21T09:30:30.888Z,10.23
2022-11-21T09:33:12.455Z,8.13
2022-11-21T09:35:39.693Z,8.52
2022-11-21T09:38:07.061Z,9.10
2022-11-21T09:40:35.383Z,8.10
2022-11-21T09:43:23.226Z,9.05
2022-11-21T09:45:52.569Z,7.82
2022-11-21T09:49:03.951Z,7.78
2022-11-21T09:51:32.247Z,8.07
2022-11-21T09:54:03.966Z,7.55
2022-11-21T09:56:33.710Z,7.85
2022-11-21T09:59:11.661Z,7.38
2022-11-21T10:01:39.150Z,6.53
2022-11-21T10:04:09.428Z,6.85
2022-11-21T10:06:48.064Z,6.85
2022-11-21T10:09:26.826Z,6.25
2022-11-21T10:12:40.130Z,6.00
2022-11-21T10:15:27.469Z,5.25
2022-11-21T10:18:05.893Z,6.13
2022-11-21T10:20:54.977Z,7.15
2022-11-21T10:23:25.247Z,8.80
2022-11-21T10:26:23.356Z,20.00
2022-11-21T10:28:53.339Z,13.60
2022-11-21T10:31:21.803Z,8.15
2022-11-21T10:33:52.189Z,19.50
2022-11-21T10:36:24.933Z,7.90
2022-11-21T10:38:54.263Z,6.90
2022-11-21T10:41:28.684Z,6.93
2022-11-21T10:44:50.116Z,29.55
2022-11-21T10:47:29.221Z,11.95
2022-11-21T10:50:08.366Z,13.68
2022-11-21T10:53:25.145Z,14.98
2022-11-21T10:56:02.579Z,7.20
2022-11-21T10:58:54.099Z,11.00
2022-11-21T11:01:32.847Z,7.68
2022-11-21T11:04:29.139Z,12.95
2022-11-21T11:06:56.431Z,8.48
2022-11-21T11:09:28.599Z,6.82
2022-11-21T11:12:17.395Z,4.50
2022-11-21T11:14:53.835Z,4.63
2022-11-21T11:17:32.658Z,4.80
2022-11-21T11:20:08.077Z,17.45
2022-11-21T11:22:35.361Z,8.95
2022-11-21T11:25:05.564Z,4.35
2022-11-21T11:27:32.781Z,4.35
2022-11-21T11:30:07.495Z,3.42
2022-11-21T11:32:40.087Z,2.58
2022-11-21T11:35:17.817Z,3.22
2022-11-21T11:38:04.467Z,2.45
2022-11-21T11:40:44.263Z,2.38
2022-11-21T11:43:30.074Z,2.70
2022-11-21T11:46:37.094Z,2.35
2022-11-21T11:49:20.369Z,2.10
2022-11-21T11:51:55.719Z,1.98
2022-11-21T11:54:34.387Z,2.05
2022-11-21T11:57:04.507Z,1.70
2022-11-21T11:59:59.568Z,1.60
2022-11-21T12:02:54.215Z,1.67
2022-11-21T12:05:26.995Z,2.05
2022-11-21T12:11:52.588Z,1.85
2022-11-21T12:15:22.731Z,1.70
2022-11-21T12:18:15.930Z,1.65
2022-11-21T12:21:00.619Z,1.70
2022-11-21T12:23:51.790Z,1.85
2022-11-21T12:26:39.646Z,1.70
2022-11-21T12:29:24.561Z,1.52
2022-11-21T12:32:19.465Z,1.80
2022-11-21T12:38:07.524Z,5.50
2022-11-21T12:41:31.950Z,2.00
2022-11-21T12:44:28.551Z,2.03
2022-11-21T12:47:12.416Z,3.20
2022-11-21T12:50:31.932Z,8.35
2022-11-21T12:53:31.643Z,2.97
2022-11-21T12:56:05.907Z,5.85
2022-11-21T13:01:21.476Z,1.95
2022-11-21T13:04:05.721Z,1.70
2022-11-21T13:06:40.705Z,2.08
2022-11-21T13:09:22.707Z,1.45
2022-11-21T13:12:08.041Z,6.05
2022-11-21T13:14:37.944Z,4.80
2022-11-21T13:17:30.579Z,5.13
2022-11-21T13:20:24.672Z,5.38
2022-11-21T13:23:02.159Z,3.88
2022-11-21T13:25:40.375Z,3.97
2022-11-21T13:28:13.802Z,5.35
2022-11-21T13:30:50.868Z,1.95
2022-11-21T13:33:36.437Z,2.22
2022-11-21T13:36:08.160Z,3.33
2022-11-21T13:38:58.343Z,3.38
2022-11-21T13:42:10.609Z,2.42
2022-11-21T13:44:41.792Z,7.22
2022-11-21T13:47:12.746Z,2.03
2022-11-21T13:49:53.422Z,2.05
2022-11-21T13:52:20.668Z,2.78
2022-11-21T13:55:03.178Z,1.50
2022-11-21T13:57:51.631Z,1.58
2022-11-21T14:00:39.658Z,1.20
2022-11-21T14:03:25.167Z,1.52
2022-11-21T14:06:03.604Z,1.42
2022-11-21T14:08:31.672Z,1.92
2022-11-21T14:10:59.171Z,1.90
2022-11-21T14:13:37.651Z,1.73
2022-11-21T14:16:42.261Z,1.48
2022-11-21T14:19:19.232Z,1.92
2022-11-21T14:21:49.028Z,1.70
2022-11-21T14:24:20.421Z,1.55
2022-11-21T14:26:50.840Z,1.50
2022-11-21T14:29:21.721Z,1.90
2022-11-21T14:31:50.349Z,2.08
2022-11-21T14:34:31.826Z,2.70
2022-11-21T14:37:05.491Z,1.80
2022-11-21T14:39:40.829Z,2.05
2022-11-21T14:42:16.707Z,2.17
2022-11-21T14:44:44.101Z,2.33
2022-11-21T14:47:25.757Z,1.67
2022-11-21T14:49:55.767Z,1.80
2022-11-21T14:52:22.978Z,2.10
2022-11-21T14:55:28.115Z,1.70
2022-11-21T14:57:43.689Z,1.77
2022-11-21T15:03:04.336Z,1.83
2022-11-21T15:06:01.455Z,1.90
2022-11-21T15:09:23.573Z,2.00
2022-11-21T15:11:15.297Z,1.88
2022-11-21T15:16:37.041Z,2.28
2022-11-21T15:19:18.385Z,2.20
2022-11-21T15:21:46.645Z,2.10
2022-11-21T15:24:19.237Z,1.80
2022-11-21T15:26:47.366Z,2.10
2022-11-21T15:29:21.263Z,2.42
2022-11-21T15:32:15.789Z,2.17
2022-11-21T15:34:43.803Z,2.20
2022-11-21T15:37:17.460Z,2.40
2022-11-21T15:42:34.573Z,2.45
2022-11-21T15:45:25.702Z,2.00
2022-11-21T15:47:53.357Z,2.10
2022-11-21T15:50:24.099Z,2.03
2022-11-21T15:52:52.488Z,2.45
2022-11-21T15:55:25.923Z,2.55
2022-11-21T15:57:10.597Z,2.10
2022-11-21T15:57:53.314Z,2.28
2022-11-21T16:00:20.620Z,2.65
2022-11-21T16:02:48.057Z,2.15
2022-11-21T16:05:16.299Z,3.08
2022-11-21T16:07:43.645Z,2.42
2022-11-21T16:10:19.796Z,3.03
2022-11-21T16:12:49.935Z,2.30
2022-11-21T16:15:17.239Z,2.08
2022-11-21T16:17:47.395Z,2.10
2022-11-21T16:20:15.282Z,2.70
2022-11-21T16:22:47.052Z,2.72
2022-11-21T16:25:14.915Z,2.35
2022-11-21T16:27:42.264Z,2.28
2022-11-21T16:30:09.901Z,2.63
2022-11-21T16:32:37.334Z,2.50
2022-11-21T16:35:05.244Z,3.03
2022-11-21T16:37:33.670Z,2.80
2022-11-21T16:40:00.884Z,3.17
2022-11-21T16:42:28.185Z,2.95
2022-11-21T16:44:55.585Z,2.90
2022-11-21T16:47:22.951Z,2.90
2022-11-21T16:49:50.239Z,2.72
2022-11-21T16:52:18.387Z,2.30
2022-11-21T16:54:47.011Z,2.25
2022-11-21T16:57:14.580Z,2.40
2022-11-21T16:59:43.246Z,2.50
2022-11-21T17:02:11.387Z,2.85
2022-11-21T17:04:38.582Z,2.33
2022-11-21T17:07:07.013Z,2.65
2022-11-21T17:09:35.131Z,2.63
2022-11-21T17:12:02.401Z,2.55
2022-11-21T17:14:29.799Z,2.10
2022-11-21T17:17:00.129Z,3.03
2022-11-21T17:19:27.500Z,2.72
2022-11-21T17:21:54.899Z,2.67
2022-11-21T17:24:22.253Z,2.47
2022-11-21T17:26:49.517Z,2.78
2022-11-21T17:29:16.860Z,2.25
2022-11-21T17:31:44.119Z,2.33
2022-11-21T17:34:11.895Z,2.67
2022-11-21T17:36:42.332Z,2.30
2022-11-21T17:39:11.295Z,2.67
2022-11-21T17:41:40.364Z,2.58
2022-11-21T17:44:07.803Z,2.22
2022-11-21T17:46:35.077Z,2.53
2022-11-21T17:49:02.536Z,2.63
2022-11-21T17:51:35.284Z,3.05
2022-11-21T17:54:03.302Z,2.90
2022-11-21T17:56:33.120Z,2.70
2022-11-21T17:59:00.624Z,3.00
2022-11-21T18:01:28.790Z,2.60
2022-11-21T18:04:01.837Z,3.83
2022-11-21T18:06:38.529Z,2.95
2022-11-21T18:09:07.843Z,4.18
2022-11-21T18:11:40.037Z,3.20
2022-11-21T18:14:10.237Z,3.78
2022-11-21T18:16:40.177Z,3.63
2022-11-21T18:19:10.519Z,2.50
2022-11-21T18:21:37.844Z,2.85
2022-11-21T18:24:05.357Z,3.17
2022-11-21T18:26:36.077Z,2.67
2022-11-21T18:29:35.550Z,2.60
2022-11-21T18:31:53.236Z,2.72
2022-11-21T18:34:20.651Z,3.28
2022-11-21T18:36:48.549Z,4.05
2022-11-21T18:39:16.033Z,2.78
2022-11-21T18:41:44.285Z,2.50
2022-11-21T18:44:17.060Z,3.55
2022-11-21T18:46:48.448Z,2.70
2022-11-21T18:49:16.713Z,3.17
2022-11-21T18:51:43.943Z,3.08
2022-11-21T18:54:11.940Z,2.70
2022-11-21T18:56:40.255Z,3.15
2022-11-21T18:59:07.904Z,3.05
2022-11-21T19:01:36.959Z,3.17
2022-11-21T19:04:05.298Z,3.05
2022-11-21T19:06:32.795Z,3.47
2022-11-21T19:09:00.056Z,3.63
2022-11-21T19:11:29.465Z,3.05
2022-11-21T19:13:57.965Z,3.20
2022-11-21T19:16:27.268Z,3.10
2022-11-21T19:21:43.260Z,3.42
2022-11-21T19:24:16.260Z,3.85
2022-11-21T19:26:43.794Z,3.15
2022-11-21T19:29:11.548Z,3.08
2022-11-21T19:31:44.561Z,2.72
2022-11-21T19:36:44.489Z,3.08
2022-11-21T19:39:11.934Z,3.10
2022-11-21T19:41:39.885Z,3.25
2022-11-21T19:44:07.308Z,3.25
2022-11-21T19:46:38.116Z,3.20
2022-11-21T19:49:06.849Z,2.95
2022-11-21T19:51:39.814Z,3.17
2022-11-21T19:54:08.508Z,3.28
2022-11-21T19:56:39.244Z,3.05
2022-11-21T19:59:10.657Z,2.55
2022-11-21T20:01:38.851Z,3.28
2022-11-21T20:04:07.766Z,3.10
2022-11-21T20:06:42.049Z,3.35
2022-11-21T20:11:40.189Z,2.63
2022-11-21T20:14:13.945Z,3.05
2022-11-21T20:16:49.604Z,3.40
2022-11-21T20:19:18.759Z,2.80
2022-11-21T20:21:47.411Z,2.83
2022-11-21T20:24:15.082Z,3.55
2022-11-21T20:26:42.837Z,3.42
2022-11-21T20:29:13.229Z,4.03
2022-11-21T20:31:40.624Z,3.97
2022-11-21T20:34:13.089Z,3.30
2022-11-21T20:36:41.245Z,3.53
2022-11-21T20:39:15.587Z,3.63
2022-11-21T20:41:42.921Z,3.45
2022-11-21T20:45:30.083Z,3.60
2022-11-21T20:47:07.803Z,2.85
2022-11-21T20:49:35.096Z,3.22
2022-11-21T20:54:52.275Z,3.28
2022-11-21T20:57:19.600Z,2.83
2022-11-21T20:59:46.646Z,3.40
2022-11-21T21:02:14.538Z,3.50
2022-11-21T21:04:42.547Z,3.20
2022-11-21T21:07:10.626Z,3.08
2022-11-21T21:09:37.882Z,3.05
2022-11-21T21:12:05.903Z,3.15
2022-11-21T21:14:33.232Z,2.88
2022-11-21T21:17:00.493Z,2.70
2022-11-21T21:19:28.301Z,3.30
2022-11-21T21:21:55.865Z,3.88
2022-11-21T21:24:24.392Z,3.47
2022-11-21T21:26:52.270Z,3.10
2022-11-21T21:29:21.257Z,3.05
2022-11-21T21:31:52.801Z,2.80
2022-11-21T21:34:22.019Z,2.80
2022-11-21T21:36:50.094Z,2.35
2022-11-21T21:39:17.406Z,2.65
2022-11-21T21:41:46.955Z,2.70
2022-11-21T21:44:15.104Z,2.60
2022-11-21T21:46:42.799Z,2.30
2022-11-21T21:49:10.104Z,2.92
2022-11-21T21:51:38.047Z,2.38
2022-11-21T21:54:06.712Z,2.10
2022-11-21T21:56:34.362Z,2.15
2022-11-21T21:59:02.008Z,2.17
2022-11-21T22:01:31.474Z,2.05
2022-11-21T22:04:00.990Z,2.17
2022-11-21T22:06:29.188Z,2.33
2022-11-21T22:08:56.665Z,2.40
2022-11-21T22:11:26.498Z,2.30
2022-11-21T22:14:05.169Z,2.28
2022-11-21T22:16:33.027Z,2.40
2022-11-21T22:19:00.316Z,1.70
2022-11-21T22:21:33.096Z,2.22
2022-11-21T22:24:24.380Z,2.45
2022-11-21T22:26:49.471Z,2.60
2022-11-21T22:29:17.037Z,2.00
2022-11-21T22:31:44.793Z,2.38
2022-11-21T22:34:14.845Z,2.00
2022-11-21T22:36:42.485Z,2.00
2022-11-21T22:39:09.952Z,2.17
2022-11-21T22:41:37.389Z,2.85
2022-11-21T22:44:05.014Z,2.50
2022-11-21T22:46:32.836Z,1.90
2022-11-21T22:49:00.090Z,2.08
2022-11-21T22:51:29.884Z,2.20
2022-11-21T22:53:57.810Z,2.08
2022-11-21T22:56:25.819Z,2.42
2022-11-21T22:58:53.883Z,2.35
2022-11-21T23:01:23.896Z,1.90
2022-11-21T23:03:52.121Z,2.35
2022-11-21T23:06:24.846Z,2.35
2022-11-21T23:08:53.240Z,2.40
2022-11-21T23:11:28.809Z,2.45
2022-11-21T23:13:57.237Z,2.03
2022-11-21T23:16:25.131Z,2.10
2022-11-21T23:18:54.111Z,3.00
2022-11-21T23:21:21.772Z,2.05
2022-11-21T23:23:49.087Z,2.80
2022-11-21T23:26:16.259Z,2.72
2022-11-21T23:28:43.508Z,2.30
2022-11-21T23:31:11.354Z,2.05
2022-11-21T23:33:38.881Z,3.35
2022-11-21T23:36:06.325Z,2.53
2022-11-21T23:38:33.719Z,2.72
2022-11-21T23:41:01.041Z,2.75
2022-11-21T23:43:28.237Z,2.75
2022-11-21T23:45:55.432Z,3.08
2022-11-21T23:48:24.359Z,2.55
2022-11-21T23:50:51.975Z,2.78
2022-11-21T23:53:20.281Z,2.63
2022-11-21T23:55:48.129Z,2.92
2022-11-21T23:58:16.208Z,3.05
